createdAt,value
2019-02-19T00:01:35.777Z,5.10
2019-02-19T00:04:04.169Z,5.10
2019-02-19T00:06:32.561Z,5.10
2019-02-19T00:09:01.268Z,5.10
2019-02-19T00:11:29.664Z,5.10
2019-02-19T00:13:58.053Z,5.10
2019-02-19T00:16:26.441Z,5.10
2019-02-19T00:18:54.823Z,5.10
2019-02-19T00:21:23.198Z,5.10
2019-02-19T00:23:51.861Z,5.10
2019-02-19T00:26:20.253Z,5.10
2019-02-19T00:28:48.638Z,5.00
2019-02-19T00:31:17.016Z,5.00
2019-02-19T00:33:45.684Z,5.00
2019-02-19T00:36:14.075Z,5.00
2019-02-19T00:38:42.459Z,5.00
2019-02-19T00:41:10.839Z,4.90
2019-02-19T00:43:39.223Z,4.90
2019-02-19T00:46:07.603Z,4.90
2019-02-19T00:48:35.999Z,4.90
2019-02-19T00:51:04.456Z,4.90
2019-02-19T00:53:32.844Z,4.90
2019-02-19T00:56:01.227Z,4.90
2019-02-19T00:58:29.624Z,4.90
2019-02-19T01:00:58.002Z,5.00
2019-02-19T01:03:26.383Z,5.00
2019-02-19T01:05:54.834Z,5.00
2019-02-19T01:08:23.225Z,4.90
2019-02-19T01:10:51.671Z,5.00
2019-02-19T01:13:20.291Z,5.00
2019-02-19T01:15:48.759Z,5.00
2019-02-19T01:18:17.453Z,5.00
2019-02-19T01:20:45.834Z,5.00
2019-02-19T01:23:14.218Z,4.90
2019-02-19T01:25:42.899Z,4.80
2019-02-19T01:28:11.304Z,4.70
2019-02-19T01:30:39.683Z,4.80
2019-02-19T01:33:08.075Z,4.70
2019-02-19T01:35:36.459Z,4.70
2019-02-19T01:38:04.853Z,4.70
2019-02-19T01:40:33.244Z,4.70
2019-02-19T01:43:01.641Z,4.70
2019-02-19T01:45:34.077Z,4.70
2019-02-19T01:48:00.202Z,4.70
2019-02-19T01:50:28.589Z,4.70
2019-02-19T01:52:56.984Z,4.70
2019-02-19T01:55:25.612Z,4.70
2019-02-19T01:57:53.988Z,4.70
2019-02-19T02:00:22.375Z,4.60
2019-02-19T02:02:50.761Z,4.60
2019-02-19T02:05:19.157Z,4.70
2019-02-19T02:07:47.619Z,4.70
2019-02-19T02:10:16.012Z,4.40
2019-02-19T02:12:44.403Z,4.40
2019-02-19T02:15:13.062Z,4.30
2019-02-19T02:17:41.441Z,4.40
2019-02-19T02:20:09.847Z,4.40
2019-02-19T02:22:38.223Z,4.50
2019-02-19T02:25:07.000Z,4.50
2019-02-19T02:27:35.388Z,4.50
2019-02-19T02:30:05.544Z,4.50
2019-02-19T02:32:33.912Z,4.50
2019-02-19T02:35:02.304Z,4.50
2019-02-19T02:37:30.678Z,4.50
2019-02-19T02:39:59.071Z,4.40
2019-02-19T02:42:27.452Z,4.40
2019-02-19T02:44:55.835Z,4.30
2019-02-19T02:47:24.212Z,4.40
2019-02-19T02:49:52.601Z,4.40
2019-02-19T02:52:20.980Z,4.40
2019-02-19T02:54:49.369Z,4.40
2019-02-19T02:57:17.747Z,4.40
2019-02-19T02:59:46.123Z,4.40
2019-02-19T03:02:14.523Z,4.40
2019-02-19T03:04:43.228Z,4.40
2019-02-19T03:07:15.946Z,4.40
2019-02-19T03:09:44.332Z,4.40
2019-02-19T03:12:12.734Z,4.50
2019-02-19T03:14:41.097Z,4.50
2019-02-19T03:17:09.485Z,4.50
2019-02-19T03:19:37.856Z,4.60
2019-02-19T03:22:06.255Z,4.60
2019-02-19T03:24:34.629Z,4.60
2019-02-19T03:27:03.033Z,4.60
2019-02-19T03:29:31.418Z,4.70
2019-02-19T03:31:59.823Z,4.70
2019-02-19T03:34:28.201Z,4.70
2019-02-19T03:36:56.592Z,4.70
2019-02-19T03:39:24.967Z,4.70
2019-02-19T03:41:53.371Z,4.70
2019-02-19T03:44:21.752Z,4.70
2019-02-19T03:46:50.148Z,4.70
2019-02-19T03:49:18.533Z,4.60
2019-02-19T03:51:46.919Z,4.60
2019-02-19T03:54:15.308Z,4.50
2019-02-19T03:56:43.708Z,4.50
2019-02-19T03:59:12.157Z,4.40
2019-02-19T04:01:40.545Z,4.40
2019-02-19T04:04:08.928Z,4.40
2019-02-19T04:06:37.651Z,4.40
2019-02-19T04:09:06.126Z,4.40
2019-02-19T04:11:34.495Z,4.40
2019-02-19T04:14:02.892Z,4.40
2019-02-19T04:16:31.277Z,4.30
2019-02-19T04:18:59.671Z,4.20
2019-02-19T04:21:28.052Z,4.20
2019-02-19T04:23:56.449Z,4.20
2019-02-19T04:26:24.828Z,4.20
2019-02-19T04:28:53.234Z,4.20
2019-02-19T04:31:21.612Z,4.20
2019-02-19T04:33:50.009Z,4.10
2019-02-19T04:36:18.384Z,4.10
2019-02-19T04:38:47.108Z,4.00
2019-02-19T04:41:15.493Z,3.90
2019-02-19T04:43:43.881Z,4.00
2019-02-19T04:46:12.274Z,4.00
2019-02-19T04:48:40.655Z,4.00
2019-02-19T04:51:09.039Z,4.10
2019-02-19T04:53:37.420Z,4.10
2019-02-19T04:56:05.815Z,4.10
2019-02-19T04:58:34.197Z,4.10
2019-02-19T05:01:02.576Z,4.10
2019-02-19T05:03:30.993Z,4.10
2019-02-19T05:05:59.426Z,4.20
2019-02-19T05:08:27.820Z,4.20
2019-02-19T05:10:56.196Z,4.20
2019-02-19T05:13:24.589Z,4.20
2019-02-19T05:15:52.961Z,4.20
2019-02-19T05:18:21.349Z,4.20
2019-02-19T05:20:49.733Z,4.10
2019-02-19T05:23:18.185Z,4.10
2019-02-19T05:25:46.575Z,3.90
2019-02-19T05:28:14.946Z,3.90
2019-02-19T05:30:43.334Z,3.80
2019-02-19T05:33:11.723Z,3.70
2019-02-19T05:35:40.107Z,3.70
2019-02-19T05:38:08.479Z,3.70
2019-02-19T05:40:36.873Z,3.80
2019-02-19T05:43:05.324Z,3.90
2019-02-19T05:45:33.711Z,4.10
2019-02-19T05:48:02.091Z,4.10
2019-02-19T05:50:30.479Z,4.10
2019-02-19T05:52:58.864Z,4.10
2019-02-19T05:55:27.254Z,4.10
2019-02-19T05:57:55.623Z,4.10
2019-02-19T06:00:24.014Z,4.10
2019-02-19T06:02:52.651Z,4.20
2019-02-19T06:05:21.039Z,4.10
2019-02-19T06:07:49.416Z,4.20
2019-02-19T06:10:17.826Z,4.30
2019-02-19T06:12:46.197Z,4.20
2019-02-19T06:15:14.657Z,4.20
2019-02-19T06:17:43.051Z,4.20
2019-02-19T06:20:11.505Z,4.10
2019-02-19T06:22:39.889Z,4.10
2019-02-19T06:25:09.111Z,4.10
2019-02-19T06:27:37.504Z,4.20
2019-02-19T06:30:09.301Z,4.20
2019-02-19T06:32:37.680Z,4.10
2019-02-19T06:35:07.011Z,4.20
2019-02-19T06:37:35.559Z,4.50
2019-02-19T06:40:06.170Z,4.70
2019-02-19T06:42:34.928Z,4.80
2019-02-19T06:45:03.384Z,4.90
2019-02-19T06:47:31.771Z,5.10
2019-02-19T06:50:00.328Z,5.30
2019-02-19T06:52:28.698Z,5.40
2019-02-19T06:54:57.072Z,5.50
2019-02-19T06:57:25.459Z,5.50
2019-02-19T06:59:53.838Z,5.60
2019-02-19T07:02:26.563Z,5.70
2019-02-19T07:04:55.249Z,5.60
2019-02-19T07:07:23.607Z,5.80
2019-02-19T07:09:51.992Z,5.80
2019-02-19T07:12:20.386Z,5.80
2019-02-19T07:14:48.772Z,5.80
2019-02-19T07:17:17.166Z,5.80
2019-02-19T07:19:45.857Z,5.70
2019-02-19T07:22:14.248Z,5.40
2019-02-19T07:24:42.631Z,5.30
2019-02-19T07:27:11.016Z,5.20
2019-02-19T07:29:39.679Z,5.20
2019-02-19T07:32:08.074Z,5.20
2019-02-19T07:34:36.453Z,5.20
2019-02-19T07:37:04.840Z,5.40
2019-02-19T07:39:33.222Z,5.30
2019-02-19T07:42:01.606Z,5.20
2019-02-19T07:44:30.055Z,5.20
2019-02-19T07:46:58.435Z,5.20
2019-02-19T07:49:26.815Z,5.20
2019-02-19T07:51:55.513Z,5.10
2019-02-19T07:54:23.890Z,5.10
2019-02-19T07:56:52.285Z,5.20
2019-02-19T07:59:20.664Z,5.20
2019-02-19T08:01:49.087Z,5.20
2019-02-19T08:04:17.475Z,5.20
2019-02-19T08:06:45.872Z,5.30
2019-02-19T08:09:14.316Z,5.30
2019-02-19T08:11:42.715Z,5.40
2019-02-19T08:14:11.097Z,5.40
2019-02-19T08:16:39.478Z,5.50
2019-02-19T08:19:07.881Z,5.50
2019-02-19T08:21:36.259Z,5.60
2019-02-19T08:24:05.124Z,5.60
2019-02-19T08:26:33.516Z,5.60
2019-02-19T08:29:13.072Z,5.80
2019-02-19T08:31:32.013Z,5.80
2019-02-19T08:34:00.403Z,5.80
2019-02-19T08:36:29.810Z,5.80
2019-02-19T08:38:58.330Z,5.90
2019-02-19T08:41:26.738Z,6.00
2019-02-19T08:43:55.099Z,6.00
2019-02-19T08:46:23.487Z,6.10
2019-02-19T08:48:51.877Z,6.10
2019-02-19T08:51:20.269Z,6.10
2019-02-19T08:53:48.658Z,6.10
2019-02-19T08:56:17.036Z,6.20
2019-02-19T08:58:45.424Z,6.20
2019-02-19T09:01:13.809Z,6.20
2019-02-19T09:03:42.218Z,6.30
2019-02-19T09:06:10.591Z,6.40
2019-02-19T09:08:38.987Z,6.40
2019-02-19T09:11:07.360Z,6.40
2019-02-19T09:13:35.748Z,6.50
2019-02-19T09:16:04.159Z,6.60
2019-02-19T09:18:32.603Z,6.70
2019-02-19T09:21:00.984Z,6.80
2019-02-19T09:23:29.372Z,6.90
2019-02-19T09:25:57.762Z,7.00
2019-02-19T09:28:26.149Z,7.00
2019-02-19T09:30:54.534Z,7.10
2019-02-19T09:33:22.920Z,7.20
2019-02-19T09:35:51.291Z,7.30
2019-02-19T09:38:19.671Z,7.30
2019-02-19T09:40:48.049Z,7.40
2019-02-19T09:43:16.448Z,7.40
2019-02-19T09:45:45.100Z,7.40
2019-02-19T09:48:13.475Z,7.50
2019-02-19T09:50:41.871Z,7.60
2019-02-19T09:53:10.252Z,7.60
2019-02-19T09:55:38.663Z,7.60
2019-02-19T09:58:07.044Z,7.70
2019-02-19T10:00:35.427Z,7.70
2019-02-19T10:03:03.808Z,7.80
2019-02-19T10:05:32.203Z,7.80
2019-02-19T10:08:00.585Z,7.90
2019-02-19T10:10:28.972Z,7.90
2019-02-19T10:12:57.361Z,7.90
2019-02-19T10:15:26.076Z,8.10
2019-02-19T10:17:54.452Z,8.10
2019-02-19T10:20:22.844Z,8.20
2019-02-19T10:22:51.225Z,8.30
2019-02-19T10:25:19.618Z,8.30
2019-02-19T10:27:48.284Z,8.30
2019-02-19T10:30:20.422Z,8.40
2019-02-19T10:32:48.877Z,8.50
2019-02-19T10:35:17.268Z,8.50
2019-02-19T10:37:45.649Z,8.50
2019-02-19T10:40:16.391Z,8.60
2019-02-19T10:42:44.778Z,8.70
2019-02-19T10:45:21.188Z,8.60
2019-02-19T10:47:49.574Z,8.80
2019-02-19T10:50:17.960Z,8.80
2019-02-19T10:52:46.344Z,8.90
2019-02-19T10:55:14.813Z,9.00
2019-02-19T10:57:43.256Z,8.90
2019-02-19T11:00:18.937Z,8.90
2019-02-19T11:02:47.583Z,8.90
2019-02-19T11:05:15.985Z,8.90
2019-02-19T11:07:44.445Z,8.90
2019-02-19T11:10:14.078Z,9.00
2019-02-19T11:12:42.458Z,9.10
2019-02-19T11:15:13.065Z,9.10
2019-02-19T11:17:40.675Z,9.20
2019-02-19T11:20:14.668Z,9.30
2019-02-19T11:22:43.142Z,9.30
2019-02-19T11:25:12.475Z,9.40
2019-02-19T11:27:40.863Z,9.50
2019-02-19T11:30:20.481Z,9.60
2019-02-19T11:32:49.084Z,9.70
2019-02-19T11:35:17.460Z,9.80
2019-02-19T11:37:45.852Z,9.70
2019-02-19T11:40:14.672Z,9.80
2019-02-19T11:42:43.070Z,9.80
2019-02-19T11:45:13.960Z,9.80
2019-02-19T11:47:42.420Z,9.70
2019-02-19T11:50:12.429Z,9.70
2019-02-19T11:52:40.824Z,9.70
2019-02-19T11:55:11.648Z,9.80
2019-02-19T11:57:40.358Z,9.80
2019-02-19T12:00:15.737Z,9.80
2019-02-19T12:02:44.121Z,9.80
2019-02-19T12:05:12.587Z,9.80
2019-02-19T12:07:43.932Z,9.80
2019-02-19T12:10:12.367Z,9.90
2019-02-19T12:12:40.899Z,9.80
2019-02-19T12:15:11.336Z,9.90
2019-02-19T12:17:39.738Z,9.90
2019-02-19T12:20:11.205Z,9.90
2019-02-19T12:22:39.588Z,9.90
2019-02-19T12:25:09.508Z,10.00
2019-02-19T12:27:37.908Z,10.10
2019-02-19T12:30:09.367Z,10.20
2019-02-19T12:32:37.759Z,10.30
2019-02-19T12:35:07.083Z,10.40
2019-02-19T12:37:35.488Z,10.60
2019-02-19T12:40:04.915Z,10.80
2019-02-19T12:42:33.320Z,11.10
2019-02-19T12:45:01.707Z,11.20
2019-02-19T12:47:30.105Z,11.30
2019-02-19T12:49:58.488Z,11.40
2019-02-19T12:52:26.880Z,11.50
2019-02-19T12:54:55.275Z,11.40
2019-02-19T12:57:23.676Z,11.50
2019-02-19T12:59:56.570Z,11.50
2019-02-19T13:02:22.183Z,11.60
2019-02-19T13:04:50.571Z,11.60
2019-02-19T13:07:18.969Z,11.60
2019-02-19T13:09:47.366Z,11.80
2019-02-19T13:12:15.748Z,11.80
2019-02-19T13:14:44.130Z,11.80
2019-02-19T13:17:12.516Z,11.90
2019-02-19T13:19:40.893Z,12.00
2019-02-19T13:22:09.279Z,12.00
2019-02-19T13:24:37.739Z,12.10
2019-02-19T13:27:06.132Z,12.30
2019-02-19T13:29:34.507Z,12.50
2019-02-19T13:32:03.175Z,12.70
2019-02-19T13:34:31.567Z,12.80
2019-02-19T13:36:59.950Z,12.90
2019-02-19T13:39:28.336Z,13.10
2019-02-19T13:41:56.729Z,12.90
2019-02-19T13:44:25.132Z,13.10
2019-02-19T13:46:53.516Z,13.30
2019-02-19T13:49:21.919Z,13.40
2019-02-19T13:51:51.079Z,13.60
2019-02-19T13:54:21.117Z,13.70
2019-02-19T13:56:49.747Z,13.80
2019-02-19T13:59:18.232Z,14.00
2019-02-19T14:01:46.609Z,14.20
2019-02-19T14:04:14.996Z,14.40
2019-02-19T14:06:43.380Z,14.40
2019-02-19T14:09:11.768Z,14.30
2019-02-19T14:11:40.147Z,14.40
2019-02-19T14:14:10.461Z,14.50
2019-02-19T14:16:43.184Z,13.80
2019-02-19T14:19:21.013Z,13.80
2019-02-19T14:21:45.016Z,13.90
2019-02-19T14:24:30.137Z,14.10
2019-02-19T14:27:06.198Z,14.10
2019-02-19T14:29:51.457Z,13.80
2019-02-19T14:32:21.478Z,13.80
2019-02-19T14:35:06.766Z,13.70
2019-02-19T14:37:39.211Z,13.70
2019-02-19T14:40:13.211Z,13.30
2019-02-19T14:42:46.192Z,13.70
2019-02-19T14:45:19.008Z,13.70
2019-02-19T14:47:54.948Z,13.80
2019-02-19T14:50:25.033Z,14.00
2019-02-19T14:53:07.288Z,14.20
2019-02-19T14:55:37.392Z,14.00
2019-02-19T14:58:07.473Z,14.00
2019-02-19T15:00:46.629Z,14.10
2019-02-19T15:03:19.588Z,14.00
2019-02-19T15:06:05.964Z,13.80
2019-02-19T15:08:51.197Z,13.80
2019-02-19T15:11:33.418Z,13.70
2019-02-19T15:14:15.483Z,13.60
2019-02-19T15:17:02.427Z,13.50
2019-02-19T15:19:38.950Z,13.50
2019-02-19T15:22:04.212Z,13.40
2019-02-19T15:24:50.648Z,13.50
2019-02-19T15:27:20.669Z,13.40
2019-02-19T15:29:53.685Z,13.30
2019-02-19T15:32:23.717Z,13.30
2019-02-19T15:34:53.743Z,13.40
2019-02-19T15:37:23.772Z,13.40
2019-02-19T15:39:53.805Z,13.40
2019-02-19T15:42:32.894Z,13.40
2019-02-19T15:45:02.937Z,13.50
2019-02-19T15:47:32.961Z,13.50
2019-02-19T15:50:14.989Z,13.40
2019-02-19T15:52:45.017Z,13.50
2019-02-19T15:55:33.129Z,13.40
2019-02-19T15:58:05.852Z,13.40
2019-02-19T16:00:41.588Z,13.50
2019-02-19T16:03:11.617Z,13.40
2019-02-19T16:06:00.208Z,13.30
2019-02-19T16:08:39.015Z,13.30
2019-02-19T16:11:46.720Z,13.20
2019-02-19T16:14:33.715Z,13.20
2019-02-19T16:17:09.511Z,13.20
2019-02-19T16:19:42.237Z,13.10
2019-02-19T16:22:24.460Z,13.00
2019-02-19T16:24:54.475Z,12.70
2019-02-19T16:27:33.304Z,12.70
2019-02-19T16:30:06.225Z,12.60
2019-02-19T16:32:44.764Z,12.50
2019-02-19T16:35:26.724Z,12.30
2019-02-19T16:37:56.752Z,12.20
2019-02-19T16:40:26.784Z,12.10
2019-02-19T16:42:59.712Z,12.00
2019-02-19T16:45:32.442Z,12.00
2019-02-19T16:48:08.436Z,11.90
2019-02-19T16:50:41.199Z,11.90
2019-02-19T16:53:13.927Z,11.80
2019-02-19T16:55:43.990Z,11.70
2019-02-19T16:58:14.349Z,11.60
2019-02-19T17:00:50.801Z,11.60
2019-02-19T17:03:33.225Z,11.40
2019-02-19T17:06:03.235Z,11.30
2019-02-19T17:08:45.140Z,11.30
2019-02-19T17:11:33.262Z,11.20
2019-02-19T17:14:18.665Z,11.00
2019-02-19T17:17:03.633Z,10.90
2019-02-19T17:19:33.956Z,10.90
2019-02-19T17:22:10.006Z,10.90
2019-02-19T17:24:46.126Z,10.70
2019-02-19T17:27:31.582Z,10.50
2019-02-19T17:30:04.305Z,10.40
2019-02-19T17:32:46.379Z,10.30
2019-02-19T17:35:19.432Z,10.20
2019-02-19T17:38:14.196Z,10.20
2019-02-19T17:40:36.246Z,10.10
2019-02-19T17:43:06.287Z,10.00
2019-02-19T17:45:48.569Z,9.90
2019-02-19T17:48:24.416Z,9.90
2019-02-19T17:51:10.950Z,9.70
2019-02-19T17:53:40.973Z,9.60
2019-02-19T17:56:10.996Z,9.50
2019-02-19T17:58:50.027Z,9.30
2019-02-19T18:01:25.847Z,9.30
2019-02-19T18:04:07.771Z,9.20
2019-02-19T18:06:55.892Z,9.10
2019-02-19T18:09:41.495Z,9.10
2019-02-19T18:12:14.212Z,9.10
2019-02-19T18:14:47.003Z,9.00
2019-02-19T18:17:22.761Z,9.00
2019-02-19T18:19:51.157Z,9.00
2019-02-19T18:22:19.536Z,9.00
2019-02-19T18:24:47.920Z,8.90
2019-02-19T18:27:16.309Z,8.80
2019-02-19T18:29:44.691Z,8.90
2019-02-19T18:32:13.068Z,8.90
2019-02-19T18:34:41.456Z,8.90
2019-02-19T18:37:09.837Z,8.90
2019-02-19T18:39:38.245Z,8.80
2019-02-19T18:42:06.624Z,8.80
2019-02-19T18:44:35.018Z,8.70
2019-02-19T18:47:03.393Z,8.70
2019-02-19T18:49:31.775Z,8.60
2019-02-19T18:52:00.163Z,8.60
2019-02-19T18:54:28.560Z,8.50
2019-02-19T18:56:56.935Z,8.50
2019-02-19T18:59:25.304Z,8.40
2019-02-19T19:01:53.689Z,8.40
2019-02-19T19:04:22.077Z,8.30
2019-02-19T19:06:50.473Z,8.30
2019-02-19T19:09:18.848Z,8.20
2019-02-19T19:11:47.241Z,8.10
2019-02-19T19:14:15.638Z,8.10
2019-02-19T19:16:44.027Z,7.90
2019-02-19T19:19:12.411Z,7.80
2019-02-19T19:21:40.868Z,7.70
2019-02-19T19:24:09.247Z,7.70
2019-02-19T19:26:37.649Z,7.60
2019-02-19T19:29:06.034Z,7.60
2019-02-19T19:31:34.427Z,7.50
2019-02-19T19:34:02.812Z,7.50
2019-02-19T19:36:31.203Z,7.50
2019-02-19T19:38:59.591Z,7.30
2019-02-19T19:41:27.989Z,7.20
2019-02-19T19:43:56.377Z,7.20
2019-02-19T19:46:24.767Z,7.20
2019-02-19T19:48:53.157Z,7.20
2019-02-19T19:51:21.559Z,7.20
2019-02-19T19:53:50.266Z,7.20
2019-02-19T19:56:18.663Z,7.10
2019-02-19T19:58:47.048Z,7.10
2019-02-19T20:01:15.447Z,7.00
2019-02-19T20:03:43.832Z,7.00
2019-02-19T20:06:12.233Z,6.90
2019-02-19T20:08:40.611Z,6.80
2019-02-19T20:11:09.027Z,6.70
2019-02-19T20:13:37.410Z,6.60
2019-02-19T20:16:06.017Z,6.50
2019-02-19T20:18:39.209Z,6.50
2019-02-19T20:21:04.515Z,6.40
2019-02-19T20:23:32.909Z,6.30
2019-02-19T20:26:01.322Z,6.20
2019-02-19T20:28:29.952Z,6.20
2019-02-19T20:30:58.332Z,6.10
2019-02-19T20:33:26.720Z,6.10
2019-02-19T20:35:55.108Z,6.10
2019-02-19T20:38:23.514Z,6.10
2019-02-19T20:40:51.897Z,6.00
2019-02-19T20:43:20.334Z,5.90
2019-02-19T20:45:48.773Z,5.90
2019-02-19T20:48:17.161Z,5.80
2019-02-19T20:50:45.549Z,5.80
2019-02-19T20:53:13.945Z,5.80
2019-02-19T20:55:42.332Z,5.80
2019-02-19T20:58:10.732Z,5.70
2019-02-19T21:00:39.185Z,5.70
2019-02-19T21:03:07.588Z,5.70
2019-02-19T21:05:36.000Z,5.60
2019-02-19T21:08:04.378Z,5.60
2019-02-19T21:10:32.833Z,5.50
2019-02-19T21:13:01.230Z,5.50
2019-02-19T21:15:29.615Z,5.50
2019-02-19T21:17:58.016Z,5.40
2019-02-19T21:20:26.393Z,5.40
2019-02-19T21:22:54.789Z,5.30
2019-02-19T21:25:30.786Z,5.20
2019-02-19T21:27:53.424Z,5.20
2019-02-19T21:30:21.807Z,5.10
2019-02-19T21:32:50.198Z,5.00
2019-02-19T21:35:18.591Z,5.00
2019-02-19T21:37:47.255Z,5.00
2019-02-19T21:40:16.384Z,4.90
2019-02-19T21:42:44.771Z,4.90
2019-02-19T21:45:14.506Z,4.90
2019-02-19T21:47:42.960Z,4.90
2019-02-19T21:50:12.492Z,4.90
2019-02-19T21:52:40.891Z,4.90
2019-02-19T21:55:10.705Z,5.00
2019-02-19T21:57:39.157Z,5.00
2019-02-19T22:00:14.291Z,4.90
2019-02-19T22:02:42.739Z,4.90
2019-02-19T22:05:11.401Z,4.90
2019-02-19T22:07:40.116Z,4.90
2019-02-19T22:10:10.551Z,4.80
2019-02-19T22:12:38.934Z,4.80
2019-02-19T22:15:09.562Z,4.80
2019-02-19T22:17:37.164Z,4.70
2019-02-19T22:20:13.185Z,4.60
2019-02-19T22:22:41.567Z,4.60
2019-02-19T22:25:09.972Z,4.60
2019-02-19T22:27:38.363Z,4.60
2019-02-19T22:30:08.707Z,4.60
2019-02-19T22:32:37.096Z,4.50
2019-02-19T22:35:06.134Z,4.50
2019-02-19T22:37:34.807Z,4.50
2019-02-19T22:40:03.289Z,4.50
2019-02-19T22:42:31.672Z,4.50
2019-02-19T22:45:00.063Z,4.50
2019-02-19T22:47:28.444Z,4.50
2019-02-19T22:49:56.827Z,4.40
2019-02-19T22:52:25.219Z,4.30
2019-02-19T22:54:55.244Z,4.30
2019-02-19T22:57:23.644Z,4.30
2019-02-19T22:59:52.058Z,4.30
2019-02-19T23:02:21.084Z,4.30
2019-02-19T23:04:49.469Z,4.20
2019-02-19T23:07:17.854Z,4.20
2019-02-19T23:09:46.235Z,4.20
2019-02-19T23:12:14.707Z,4.20
2019-02-19T23:14:43.085Z,4.10
2019-02-19T23:17:11.481Z,4.10
2019-02-19T23:19:39.862Z,4.10
2019-02-19T23:22:08.255Z,4.10
2019-02-19T23:24:36.704Z,4.10
2019-02-19T23:27:05.228Z,4.10
2019-02-19T23:29:33.613Z,4.10
2019-02-19T23:32:02.005Z,4.00
2019-02-19T23:34:30.383Z,4.00
2019-02-19T23:36:59.857Z,4.00
2019-02-19T23:39:28.237Z,3.90
2019-02-19T23:41:56.628Z,3.90
2019-02-19T23:44:25.012Z,3.90
2019-02-19T23:46:53.395Z,3.70
2019-02-19T23:49:21.768Z,3.70
2019-02-19T23:51:50.188Z,3.70
2019-02-19T23:54:18.532Z,3.60
2019-02-19T23:56:46.927Z,3.60
2019-02-19T23:59:15.305Z,3.60
